Time;durP1;ratioP1;P1;durP2;ratioP2;P2;SDS_P1;SDS_P2;PMS_P1;PMS_P2;Temp;Humidity;BMP_temperature;BMP_pressure;BME280_temperature;BME280_humidity;BME280_pressure;Samples;Min_cycle;Max_cycle;Signal;HPM_P1;HPM_P2
2022/07/02 00:00:55;;;;;;;0.20;0.10;;;13.80;99.90;;;;;;4980848;28;90232;-34
2022/07/02 00:03:24;;;;;;;0.20;0.15;;;13.80;99.90;;;;;;4981538;28;89239;-36
2022/07/02 00:05:57;;;;;;;0.20;0.20;;;13.80;99.90;;;;;;4981007;28;89388;-34
2022/07/02 00:08:24;;;;;;;0.20;0.10;;;13.80;99.90;;;;;;4980779;28;89439;-37
2022/07/02 00:10:51;;;;;;;0.28;0.25;;;13.80;99.90;;;;;;4980473;28;89981;-33
2022/07/02 00:13:18;;;;;;;0.20;0.10;;;13.80;99.90;;;;;;4981179;28;90304;-35
2022/07/02 00:15:44;;;;;;;0.20;0.17;;;13.80;99.90;;;;;;4981599;28;89423;-33
2022/07/02 00:18:11;;;;;;;0.20;0.13;;;13.70;99.90;;;;;;4979714;28;89401;-33
2022/07/02 00:20:38;;;;;;;0.20;0.10;;;13.70;99.90;;;;;;4978129;28;90191;-34
2022/07/02 00:23:04;;;;;;;0.68;0.68;;;13.70;99.90;;;;;;4960215;28;90075;-33
2022/07/02 00:25:40;;;;;;;0.20;0.10;;;13.70;99.90;;;;;;4967098;28;90785;-33
2022/07/02 00:28:10;;;;;;;0.20;0.10;;;13.60;99.90;;;;;;4971117;28;89702;-36
2022/07/02 00:30:38;;;;;;;2.05;1.85;;;13.60;99.90;;;;;;4977346;28;89688;-34
2022/07/02 00:33:04;;;;;;;0.20;0.20;;;13.60;99.90;;;;;;4980752;28;89924;-33
2022/07/02 00:35:30;;;;;;;0.20;0.20;;;13.60;99.90;;;;;;4980656;28;89360;-35
2022/07/02 00:37:56;;;;;;;0.20;0.10;;;13.50;99.90;;;;;;4981125;28;88203;-35
2022/07/02 00:40:23;;;;;;;0.20;0.20;;;13.50;99.90;;;;;;4981345;28;90175;-35
2022/07/02 00:42:48;;;;;;;0.20;0.10;;;13.50;99.90;;;;;;4980188;28;90068;-36
2022/07/02 00:45:16;;;;;;;0.20;0.10;;;13.50;99.90;;;;;;4977453;28;89275;-34
2022/07/02 00:47:43;;;;;;;0.45;0.45;;;13.40;99.90;;;;;;4969977;28;88690;-33
2022/07/02 00:50:09;;;;;;;0.20;0.10;;;13.40;99.90;;;;;;4980793;28;91600;-34
2022/07/02 00:52:35;;;;;;;0.20;0.20;;;13.40;99.90;;;;;;4980373;28;89945;-36
2022/07/02 00:55:01;;;;;;;0.20;0.10;;;13.40;99.90;;;;;;4980297;28;89179;-38
2022/07/02 00:57:27;;;;;;;0.30;0.30;;;13.30;99.90;;;;;;4980222;28;88766;-35
2022/07/02 00:59:53;;;;;;;0.40;0.40;;;13.40;99.90;;;;;;4980332;28;90607;-36
2022/07/02 01:02:22;;;;;;;1.40;1.00;;;13.30;99.90;;;;;;4980795;28;89130;-33
2022/07/02 01:04:49;;;;;;;0.20;0.20;;;13.30;99.90;;;;;;4980542;28;90393;-34
2022/07/02 01:07:15;;;;;;;0.20;0.10;;;13.30;99.90;;;;;;4979686;28;88443;-36
2022/07/02 01:12:33;;;;;;;0.20;0.10;;;13.20;99.90;;;;;;4940513;28;90752;-37
2022/07/02 01:14:58;;;;;;;0.20;0.10;;;13.20;99.90;;;;;;4941299;28;90665;-36
2022/07/02 01:17:24;;;;;;;0.20;0.20;;;13.10;99.90;;;;;;4940614;28;89577;-38
2022/07/02 01:19:51;;;;;;;0.20;0.20;;;13.20;99.90;;;;;;4941010;28;89771;-34
2022/07/02 01:22:33;;;;;;;0.20;0.20;;;13.10;99.90;;;;;;4940869;28;90771;-36
2022/07/02 01:24:59;;;;;;;0.20;0.10;;;13.10;99.90;;;;;;4929136;28;89094;-38
2022/07/02 01:27:24;;;;;;;0.20;0.10;;;13.10;99.90;;;;;;4941204;28;89880;-37
2022/07/02 01:29:50;;;;;;;0.28;0.25;;;13.10;99.90;;;;;;4939751;28;89300;-37
2022/07/02 01:32:16;;;;;;;0.55;0.55;;;13.10;99.90;;;;;;4940382;28;89685;-34
2022/07/02 01:34:47;;;;;;;0.20;0.10;;;13.10;99.90;;;;;;4940163;28;89517;-36
2022/07/02 01:37:17;;;;;;;0.55;0.55;;;13.00;99.90;;;;;;4940691;28;88768;-34
2022/07/02 01:39:44;;;;;;;0.20;0.10;;;13.10;99.90;;;;;;4940231;28;90200;-36
2022/07/02 01:42:11;;;;;;;0.20;0.10;;;13.10;99.90;;;;;;4940320;28;89368;-33
2022/07/02 01:44:38;;;;;;;0.20;0.10;;;13.00;99.90;;;;;;4940027;28;89860;-35
2022/07/02 01:47:06;;;;;;;0.20;0.10;;;13.00;99.90;;;;;;4940612;28;88258;-34
2022/07/02 01:49:32;;;;;;;;;;;13.00;99.90;;;;;;4940709;28;89863;-35
2022/07/02 01:51:57;;;;;;;0.20;0.10;;;13.00;99.90;;;;;;4941678;28;89847;-33
2022/07/02 01:54:23;;;;;;;0.20;0.10;;;13.00;99.90;;;;;;4940792;28;89752;-32
2022/07/02 01:56:49;;;;;;;0.20;0.10;;;13.00;99.90;;;;;;4939951;28;87790;-35
2022/07/02 01:59:14;;;;;;;0.20;0.10;;;13.00;99.90;;;;;;4940438;28;90242;-33
2022/07/02 02:01:41;;;;;;;0.20;0.10;;;13.00;99.90;;;;;;4938601;28;90320;-34
2022/07/02 02:04:07;;;;;;;0.20;0.13;;;13.00;99.90;;;;;;4940352;28;90413;-33
2022/07/02 02:06:33;;;;;;;0.22;0.20;;;13.00;99.90;;;;;;4940931;28;88756;-35
2022/07/02 02:08:59;;;;;;;0.20;0.10;;;12.90;99.90;;;;;;4938583;28;90202;-37
2022/07/02 02:11:25;;;;;;;0.20;0.20;;;13.00;99.90;;;;;;4940498;28;89787;-37
2022/07/02 02:13:51;;;;;;;0.20;0.10;;;12.90;99.90;;;;;;4939801;28;90833;-33
2022/07/02 02:16:17;;;;;;;0.20;0.10;;;13.00;99.90;;;;;;4940348;28;89011;-35
2022/07/02 02:18:43;;;;;;;0.20;0.10;;;12.90;99.90;;;;;;4939966;28;90547;-34
2022/07/02 02:21:09;;;;;;;0.50;0.40;;;12.90;99.90;;;;;;4939757;28;89894;-34
2022/07/02 02:23:34;;;;;;;0.77;0.75;;;12.90;99.90;;;;;;4939638;28;88706;-39
2022/07/02 02:26:00;;;;;;;0.20;0.10;;;12.90;99.90;;;;;;4939756;28;90089;-35
2022/07/02 02:28:26;;;;;;;0.20;0.10;;;12.90;99.90;;;;;;4939650;28;90335;-36
2022/07/02 02:30:51;;;;;;;0.20;0.10;;;12.90;99.90;;;;;;4940264;28;89729;-32
2022/07/02 02:33:17;;;;;;;0.47;0.47;;;12.90;99.90;;;;;;4939401;28;89527;-34
2022/07/02 02:35:43;;;;;;;0.20;0.10;;;13.00;99.90;;;;;;4940254;28;89378;-33
2022/07/02 02:38:08;;;;;;;0.35;0.28;;;12.90;99.90;;;;;;4939518;28;88986;-35
2022/07/02 02:40:34;;;;;;;0.20;0.10;;;12.90;99.90;;;;;;4940611;28;89848;-37
2022/07/02 02:42:59;;;;;;;0.47;0.47;;;13.00;99.90;;;;;;4943411;28;89865;-34
2022/07/02 02:45:25;;;;;;;0.32;0.28;;;13.00;99.90;;;;;;4943215;28;89123;-36
2022/07/02 02:47:51;;;;;;;0.20;0.10;;;12.90;99.90;;;;;;4942738;28;90180;-32
2022/07/02 02:50:17;;;;;;;0.22;0.22;;;12.90;99.90;;;;;;4942216;28;90565;-34
2022/07/02 02:52:42;;;;;;;0.20;0.20;;;12.90;99.90;;;;;;4943178;28;90579;-35
2022/07/02 02:55:08;;;;;;;0.55;0.50;;;13.00;99.90;;;;;;4943308;28;88690;-35
2022/07/02 02:57:34;;;;;;;0.30;0.30;;;12.90;99.90;;;;;;4942822;28;90600;-32
2022/07/02 03:00:00;;;;;;;0.20;0.20;;;12.90;99.90;;;;;;4943526;28;89230;-32
2022/07/02 03:02:25;;;;;;;0.65;0.38;;;12.90;99.90;;;;;;4942680;28;90513;-34
2022/07/02 03:04:51;;;;;;;0.20;0.10;;;12.90;99.90;;;;;;4943543;28;89809;-33
2022/07/02 03:07:16;;;;;;;0.20;0.15;;;12.80;99.90;;;;;;4942888;28;90293;-36
2022/07/02 03:09:42;;;;;;;2.47;2.28;;;12.80;99.90;;;;;;4942493;28;89645;-34
2022/07/02 03:12:08;;;;;;;0.20;0.20;;;12.80;99.90;;;;;;4942792;28;89393;-33
2022/07/02 03:14:34;;;;;;;0.73;0.73;;;12.80;99.90;;;;;;4942149;28;89831;-33
2022/07/02 03:16:59;;;;;;;0.40;0.40;;;12.80;99.90;;;;;;4943207;28;90266;-35
2022/07/02 03:19:25;;;;;;;0.20;0.10;;;12.80;99.90;;;;;;4942298;28;90509;-33
2022/07/02 03:21:50;;;;;;;0.73;0.73;;;12.80;99.90;;;;;;4942583;28;89435;-36
2022/07/02 03:24:16;;;;;;;0.20;0.20;;;12.80;99.90;;;;;;4942678;28;88997;-36
2022/07/02 03:26:42;;;;;;;0.30;0.25;;;12.80;99.90;;;;;;4942842;28;88600;-33
2022/07/02 03:29:07;;;;;;;0.50;0.50;;;12.80;99.90;;;;;;4942463;28;90722;-33
2022/07/02 03:31:33;;;;;;;0.20;0.10;;;12.80;99.90;;;;;;4942544;28;89870;-36
2022/07/02 03:33:58;;;;;;;0.20;0.20;;;12.80;99.90;;;;;;4942527;28;89158;-34
2022/07/02 03:36:24;;;;;;;0.93;0.82;;;12.80;99.90;;;;;;4942395;28;90589;-34
2022/07/02 03:38:50;;;;;;;0.20;0.10;;;12.80;99.90;;;;;;4941677;28;90748;-37
2022/07/02 03:41:15;;;;;;;0.20;0.17;;;12.80;99.90;;;;;;4942488;28;90742;-36
2022/07/02 03:43:42;;;;;;;0.20;0.10;;;12.80;99.90;;;;;;4942463;28;88358;-33
2022/07/02 03:46:07;;;;;;;0.20;0.15;;;12.80;99.90;;;;;;4942779;28;90126;-33
2022/07/02 03:48:33;;;;;;;0.47;0.47;;;12.80;99.90;;;;;;4942015;28;90525;-34
2022/07/02 03:50:59;;;;;;;0.20;0.10;;;12.90;99.90;;;;;;4942225;28;87698;-34
2022/07/02 03:53:24;;;;;;;0.40;0.20;;;12.90;99.90;;;;;;4942745;28;89401;-36
2022/07/02 03:55:50;;;;;;;0.22;0.22;;;12.90;99.90;;;;;;4942131;28;89830;-34
2022/07/02 03:58:16;;;;;;;0.20;0.10;;;12.90;99.90;;;;;;4942135;28;89754;-35
2022/07/02 04:00:42;;;;;;;0.20;0.10;;;12.90;99.90;;;;;;4941598;28;89196;-32
2022/07/02 04:03:07;;;;;;;0.20;0.10;;;13.00;99.90;;;;;;4941769;28;89563;-37
2022/07/02 04:05:33;;;;;;;0.20;0.10;;;13.00;99.90;;;;;;4941762;28;90765;-33
2022/07/02 04:07:58;;;;;;;0.22;0.22;;;13.10;99.90;;;;;;4942001;28;89010;-34
2022/07/02 04:10:24;;;;;;;0.20;0.10;;;13.10;99.90;;;;;;4940834;28;89504;-35
2022/07/02 04:12:50;;;;;;;0.30;0.30;;;13.20;99.90;;;;;;4942110;28;88680;-36
2022/07/02 04:15:15;;;;;;;0.45;0.45;;;13.20;99.90;;;;;;4941617;28;91679;-34
2022/07/02 04:17:41;;;;;;;0.30;0.30;;;13.30;99.90;;;;;;4941000;28;89525;-37
2022/07/02 04:20:07;;;;;;;0.38;0.38;;;13.30;99.90;;;;;;4942165;28;89303;-35
2022/07/02 04:22:33;;;;;;;0.30;0.30;;;13.40;99.90;;;;;;4941526;28;90000;-34
2022/07/02 04:24:58;;;;;;;1.40;1.10;;;13.40;99.90;;;;;;4942279;28;90226;-34
2022/07/02 04:27:24;;;;;;;0.20;0.10;;;13.50;99.90;;;;;;4941275;28;90307;-33
2022/07/02 04:29:49;;;;;;;0.20;0.10;;;13.60;99.90;;;;;;4941020;28;89143;-35
2022/07/02 04:32:15;;;;;;;0.20;0.20;;;13.70;99.90;;;;;;4942312;28;90313;-33
2022/07/02 04:34:41;;;;;;;0.20;0.13;;;13.90;99.90;;;;;;4940625;28;90204;-34
2022/07/02 04:37:06;;;;;;;0.20;0.10;;;14.10;99.90;;;;;;4942304;28;89651;-34
2022/07/02 04:39:32;;;;;;;0.68;0.65;;;14.30;99.90;;;;;;4941636;28;89293;-34
2022/07/02 04:41:58;;;;;;;0.20;0.20;;;14.50;99.90;;;;;;4941325;28;87805;-37
2022/07/02 04:44:24;;;;;;;0.25;0.25;;;14.70;99.90;;;;;;4941782;28;90234;-35
2022/07/02 04:46:50;;;;;;;0.30;0.30;;;14.90;99.90;;;;;;4941516;28;90482;-33
2022/07/02 04:49:16;;;;;;;0.20;0.20;;;15.10;99.90;;;;;;4941539;28;89711;-34
2022/07/02 04:51:42;;;;;;;0.20;0.20;;;15.20;99.90;;;;;;4940765;28;90280;-36
2022/07/02 04:54:07;;;;;;;0.20;0.10;;;15.50;99.90;;;;;;4941619;28;90638;-37
2022/07/02 04:56:33;;;;;;;0.22;0.22;;;15.70;99.90;;;;;;4941138;28;89638;-34
2022/07/02 04:58:58;;;;;;;1.45;1.45;;;15.80;99.90;;;;;;4941068;28;89287;-36
2022/07/02 05:01:24;;;;;;;0.35;0.35;;;16.00;99.90;;;;;;4942189;28;88712;-33
2022/07/02 05:03:53;;;;;;;0.57;0.57;;;16.20;99.90;;;;;;4939202;28;90630;-32
2022/07/02 05:06:19;;;;;;;0.43;0.20;;;16.50;99.90;;;;;;4939577;28;90109;-34
2022/07/02 05:08:45;;;;;;;1.30;0.43;;;16.60;99.90;;;;;;4940617;28;89992;-37
2022/07/02 05:11:11;;;;;;;1.13;1.02;;;16.60;99.90;;;;;;4941097;28;88785;-36
2022/07/02 05:13:36;;;;;;;0.45;0.20;;;16.80;99.90;;;;;;4940979;28;90382;-33
2022/07/02 05:16:02;;;;;;;0.20;0.20;;;17.00;99.90;;;;;;4940267;28;92205;-34
2022/07/02 05:18:28;;;;;;;0.22;0.15;;;17.10;99.90;;;;;;4940680;28;89566;-35
2022/07/02 05:20:53;;;;;;;0.20;0.20;;;17.20;99.90;;;;;;4940631;28;87962;-37
2022/07/02 05:23:19;;;;;;;0.75;0.75;;;17.20;99.90;;;;;;4941024;28;90426;-36
2022/07/02 05:25:44;;;;;;;0.22;0.22;;;17.40;99.90;;;;;;4940330;28;89425;-34
2022/07/02 05:28:10;;;;;;;0.20;0.20;;;17.60;99.90;;;;;;4940520;28;91585;-33
2022/07/02 05:30:35;;;;;;;0.22;0.15;;;17.70;99.90;;;;;;4940737;28;88906;-35
2022/07/02 05:33:01;;;;;;;1.02;1.02;;;17.70;99.90;;;;;;4940618;28;91963;-34
2022/07/02 05:35:27;;;;;;;0.30;0.30;;;17.70;99.90;;;;;;4940414;28;89601;-33
2022/07/02 05:37:53;;;;;;;0.35;0.32;;;17.80;99.90;;;;;;4940130;28;89614;-33
2022/07/02 05:40:18;;;;;;;0.20;0.10;;;18.00;99.90;;;;;;4940460;28;89649;-34
2022/07/02 05:42:44;;;;;;;0.20;0.17;;;18.00;99.90;;;;;;4940456;28;90460;-35
2022/07/02 05:45:10;;;;;;;1.45;1.45;;;18.20;99.90;;;;;;4940463;28;90194;-33
2022/07/02 05:47:36;;;;;;;0.20;0.10;;;18.30;99.90;;;;;;4940199;28;89657;-38
2022/07/02 05:50:01;;;;;;;0.30;0.30;;;18.40;99.90;;;;;;4940463;28;87926;-36
2022/07/02 05:52:27;;;;;;;0.40;0.30;;;18.50;99.90;;;;;;4939867;28;90331;-33
2022/07/02 05:54:52;;;;;;;0.20;0.10;;;18.60;99.90;;;;;;4940193;28;89129;-34
2022/07/02 05:57:18;;;;;;;0.65;0.20;;;18.60;99.90;;;;;;4940297;28;90257;-35
2022/07/02 05:59:44;;;;;;;0.40;0.40;;;18.80;99.90;;;;;;4940787;28;89526;-37
2022/07/02 06:02:09;;;;;;;0.20;0.10;;;19.00;99.90;;;;;;4940786;28;89125;-36
2022/07/02 06:04:35;;;;;;;0.20;0.10;;;19.10;99.90;;;;;;4939645;28;90465;-37
2022/07/02 06:09:45;;;;;;;0.30;0.30;;;19.20;99.90;;;;;;4939687;28;89036;-36
2022/07/02 06:12:11;;;;;;;1.70;0.50;;;19.40;99.90;;;;;;4940236;28;90582;-37
2022/07/02 06:14:36;;;;;;;0.32;0.32;;;19.50;99.90;;;;;;4938834;28;89997;-37
2022/07/02 06:17:02;;;;;;;0.20;0.10;;;19.60;99.90;;;;;;4939210;28;89471;-36
2022/07/02 06:19:28;;;;;;;0.57;0.52;;;19.70;99.90;;;;;;4939970;28;88722;-34
2022/07/02 06:21:53;;;;;;;0.32;0.32;;;19.80;99.90;;;;;;4939897;28;90123;-35
2022/07/02 06:24:19;;;;;;;0.68;0.68;;;19.80;99.90;;;;;;4940245;28;89709;-37
2022/07/02 06:26:44;;;;;;;0.20;0.10;;;19.90;99.90;;;;;;4939410;28;89703;-38
2022/07/02 06:29:10;;;;;;;0.20;0.20;;;;;;;;;;4939830;28;89049;-36
2022/07/02 06:31:36;;;;;;;0.20;0.00;;;20.10;99.90;;;;;;4939731;28;90305;-34
2022/07/02 06:34:03;;;;;;;0.20;0.10;;;20.30;99.90;;;;;;4939420;28;88715;-37
2022/07/02 06:36:29;;;;;;;0.43;0.20;;;20.30;99.90;;;;;;4940078;28;89173;-33
2022/07/02 06:38:54;;;;;;;0.20;0.20;;;20.50;99.90;;;;;;4939563;28;90215;-34
2022/07/02 06:44:06;;;;;;;0.20;0.13;;;20.70;99.90;;;;;;4940532;28;90250;-37
2022/07/02 06:46:34;;;;;;;0.65;0.65;;;20.70;99.90;;;;;;4941410;28;88401;-33
2022/07/02 06:49:00;;;;;;;0.20;0.10;;;20.70;99.90;;;;;;4941230;28;89369;-36
2022/07/02 06:51:26;;;;;;;0.40;0.40;;;20.60;99.90;;;;;;4942473;28;90107;-35
2022/07/02 06:53:53;;;;;;;0.20;0.00;;;21.00;99.90;;;;;;4939283;28;90590;-33
2022/07/02 06:56:19;;;;;;;0.20;0.10;;;21.00;99.90;;;;;;4941454;28;90154;-34
2022/07/02 06:58:45;;;;;;;0.20;0.10;;;21.20;99.90;;;;;;4947559;28;88601;-36
2022/07/02 07:01:11;;;;;;;0.20;0.00;;;21.30;99.90;;;;;;4948890;28;90046;-35
2022/07/02 07:03:36;;;;;;;0.20;0.05;;;21.30;99.90;;;;;;4949546;28;89493;-35
2022/07/02 07:06:02;;;;;;;0.40;0.25;;;21.50;99.90;;;;;;4947051;28;89104;-33
2022/07/02 07:08:28;;;;;;;0.20;0.10;;;21.60;99.90;;;;;;4947646;28;89090;-34
2022/07/02 07:10:53;;;;;;;0.20;0.00;;;21.20;99.90;;;;;;4940562;28;90007;-35
2022/07/02 07:13:19;;;;;;;0.20;0.00;;;21.20;99.90;;;;;;4939124;28;89536;-33
2022/07/02 07:15:44;;;;;;;0.40;0.38;;;21.40;99.90;;;;;;4939057;28;89451;-37
2022/07/02 07:18:10;;;;;;;0.20;0.00;;;21.50;99.90;;;;;;4938297;28;90538;-34
2022/07/02 07:20:36;;;;;;;0.20;0.10;;;21.90;99.90;;;;;;4939285;28;89930;-35
2022/07/02 07:23:02;;;;;;;0.20;0.00;;;22.10;99.90;;;;;;4939180;28;89120;-35
2022/07/02 07:25:28;;;;;;;0.20;0.00;;;22.30;99.90;;;;;;4939925;28;89734;-37
2022/07/02 07:27:53;;;;;;;0.20;0.10;;;22.30;99.90;;;;;;4941146;28;89777;-34
2022/07/02 07:30:19;;;;;;;0.20;0.00;;;22.20;99.90;;;;;;4939824;28;89113;-35
2022/07/02 07:32:46;;;;;;;0.20;0.00;;;22.30;95.60;;;;;;4940449;28;89737;-35
2022/07/02 07:35:11;;;;;;;0.20;0.10;;;22.00;97.90;;;;;;4941615;28;89505;-36
2022/07/02 07:37:37;;;;;;;0.20;0.00;;;21.80;99.00;;;;;;4941857;28;88935;-38
2022/07/02 07:40:11;;;;;;;0.20;0.00;;;22.10;98.30;;;;;;4947574;28;89680;-35
2022/07/02 07:42:36;;;;;;;0.20;0.00;;;22.10;90.30;;;;;;4946666;28;90688;-36
2022/07/02 07:45:03;;;;;;;0.20;0.20;;;22.20;94.20;;;;;;4950315;28;90044;-34
2022/07/02 07:47:29;;;;;;;0.30;0.10;;;22.30;98.30;;;;;;4939124;28;89026;-36
2022/07/02 07:49:55;;;;;;;0.20;0.00;;;22.70;81.90;;;;;;4938883;28;90506;-36
2022/07/02 07:52:20;;;;;;;0.20;0.00;;;22.70;88.40;;;;;;4938589;28;90207;-35
2022/07/02 07:54:46;;;;;;;0.20;0.00;;;22.60;85.50;;;;;;4938744;28;89152;-35
2022/07/02 07:57:11;;;;;;;0.22;0.08;;;22.40;76.10;;;;;;4940015;28;89726;-34
2022/07/02 07:59:37;;;;;;;0.20;0.00;;;22.60;85.60;;;;;;4943109;28;90222;-36
2022/07/02 08:02:03;;;;;;;1.38;0.35;;;22.30;90.00;;;;;;4951914;28;89405;-35
2022/07/02 08:04:29;;;;;;;0.20;0.00;;;22.60;85.60;;;;;;4952487;28;89243;-37
2022/07/02 08:06:55;;;;;;;0.20;0.00;;;22.90;83.50;;;;;;4944604;28;88514;-37
2022/07/02 08:09:20;;;;;;;0.20;0.00;;;22.90;76.40;;;;;;4949182;28;90143;-34
2022/07/02 08:11:46;;;;;;;0.20;0.00;;;22.90;80.60;;;;;;4950953;28;89769;-37
2022/07/02 08:14:11;;;;;;;0.20;0.10;;;22.80;77.70;;;;;;4951018;28;89253;-34
2022/07/02 08:16:37;;;;;;;0.20;0.08;;;23.10;67.00;;;;;;4946303;28;88210;-38
2022/07/02 08:19:02;;;;;;;0.20;0.03;;;23.00;65.10;;;;;;4943545;28;90394;-37
2022/07/02 08:21:28;;;;;;;0.20;0.00;;;23.20;69.10;;;;;;4940953;28;89216;-33
2022/07/02 08:23:53;;;;;;;0.28;0.13;;;23.30;73.80;;;;;;4942629;28;90016;-35
2022/07/02 08:26:19;;;;;;;0.20;0.20;;;23.30;65.50;;;;;;4946290;28;87945;-33
2022/07/02 08:28:45;;;;;;;0.20;0.00;;;23.30;63.30;;;;;;4946860;28;90146;-34
2022/07/02 08:31:10;;;;;;;0.20;0.00;;;23.40;65.00;;;;;;4946688;28;90553;-36
2022/07/02 08:33:36;;;;;;;0.45;0.30;;;23.40;66.20;;;;;;4944693;28;90690;-34
2022/07/02 08:36:02;;;;;;;0.20;0.00;;;23.50;68.00;;;;;;4947492;28;88212;-38
2022/07/02 08:38:27;;;;;;;0.20;0.00;;;23.70;63.40;;;;;;4945173;28;90162;-36
2022/07/02 08:40:53;;;;;;;0.20;0.00;;;23.40;64.20;;;;;;4948088;28;89493;-38
2022/07/02 08:43:24;;;;;;;0.20;0.00;;;23.40;59.60;;;;;;4947956;28;89959;-33
2022/07/02 08:45:51;;;;;;;0.20;0.00;;;23.10;60.20;;;;;;4946363;28;88430;-35
2022/07/02 08:48:18;;;;;;;0.20;0.00;;;23.20;62.40;;;;;;4946388;28;90487;-37
2022/07/02 08:50:45;;;;;;;0.20;0.00;;;23.30;62.40;;;;;;4944321;28;88782;-33
2022/07/02 08:53:11;;;;;;;0.20;0.00;;;23.60;62.40;;;;;;4945996;28;89283;-35
2022/07/02 08:55:37;;;;;;;0.20;0.00;;;23.60;59.20;;;;;;4950372;28;88570;-34
2022/07/02 08:58:05;;;;;;;0.20;0.00;;;23.40;61.30;;;;;;4951866;28;89396;-35
2022/07/02 09:00:30;;;;;;;0.30;0.15;;;23.30;60.10;;;;;;4942755;28;89515;-37
2022/07/02 09:02:58;;;;;;;0.20;0.00;;;23.50;61.80;;;;;;4939340;28;90918;-34
2022/07/02 09:05:26;;;;;;;0.20;0.00;;;23.70;61.20;;;;;;4939525;28;89899;-36
2022/07/02 09:07:52;;;;;;;;;;;23.80;61.50;;;;;;4938736;28;90090;-38
2022/07/02 09:10:20;;;;;;;0.20;0.00;;;23.90;62.10;;;;;;4940821;28;89057;-34
2022/07/02 09:12:46;;;;;;;;;;;23.60;62.80;;;;;;4942395;28;89403;-35
2022/07/02 09:15:13;;;;;;;0.20;0.00;;;23.40;60.60;;;;;;4948775;28;89678;-36
2022/07/02 09:17:43;;;;;;;0.20;0.00;;;23.60;60.70;;;;;;4945639;28;90432;-37
2022/07/02 09:20:11;;;;;;;0.20;0.00;;;23.70;63.80;;;;;;4943834;28;90525;-37
2022/07/02 09:22:42;;;;;;;0.20;0.00;;;23.70;63.90;;;;;;4942588;28;90480;-34
2022/07/02 09:25:11;;;;;;;0.20;0.00;;;23.70;62.70;;;;;;4941976;28;88175;-36
2022/07/02 09:27:37;;;;;;;0.20;0.00;;;23.80;61.70;;;;;;4943134;28;89636;-33
2022/07/02 09:30:04;;;;;;;0.20;0.00;;;23.80;58.90;;;;;;4944945;28;90059;-33
2022/07/02 09:32:40;;;;;;;0.20;0.00;;;23.80;61.50;;;;;;4944812;28;88957;-37
2022/07/02 09:35:06;;;;;;;0.20;0.00;;;23.70;62.20;;;;;;4942203;28;89176;-36
2022/07/02 09:37:32;;;;;;;0.30;0.20;;;23.80;61.90;;;;;;4942223;28;89947;-35
2022/07/02 09:40:01;;;;;;;0.43;0.43;;;23.90;60.60;;;;;;4942535;28;89183;-36
2022/07/02 09:42:34;;;;;;;0.20;0.00;;;23.80;61.20;;;;;;4935692;28;89099;-35
2022/07/02 09:45:02;;;;;;;0.20;0.00;;;23.70;60.20;;;;;;4945669;28;89576;-36
2022/07/02 09:47:31;;;;;;;0.20;0.00;;;23.80;58.80;;;;;;4946143;28;90349;-36
2022/07/02 09:50:00;;;;;;;0.68;0.38;;;24.00;59.60;;;;;;4941351;28;89615;-36
2022/07/02 09:52:26;;;;;;;0.20;0.00;;;24.10;61.30;;;;;;4945269;28;89599;-34
2022/07/02 09:54:51;;;;;;;0.22;0.10;;;23.90;61.40;;;;;;4948788;28;87662;-34
2022/07/02 09:57:17;;;;;;;0.35;0.20;;;23.90;62.40;;;;;;4946582;28;90166;-37
2022/07/02 09:59:42;;;;;;;0.20;0.00;;;23.30;61.60;;;;;;4943341;28;89495;-36
2022/07/02 10:02:23;;;;;;;0.20;0.10;;;23.40;64.70;;;;;;4937712;28;91030;-35
2022/07/02 10:04:53;;;;;;;0.20;0.00;;;23.50;62.90;;;;;;4937733;28;88116;-36
2022/07/02 10:07:21;;;;;;;0.30;0.22;;;23.30;61.80;;;;;;4938350;28;90563;-34
2022/07/02 10:09:48;;;;;;;1.13;1.10;;;23.30;64.30;;;;;;4936109;28;90191;-35
2022/07/02 10:12:15;;;;;;;0.57;0.13;;;23.40;65.90;;;;;;4937594;28;89335;-36
2022/07/02 10:14:42;;;;;;;0.20;0.00;;;23.10;65.80;;;;;;4938571;28;88361;-34
2022/07/02 10:17:09;;;;;;;0.65;0.65;;;23.10;70.80;;;;;;4937632;28;90403;-33
2022/07/02 10:19:37;;;;;;;0.20;0.00;;;22.90;69.90;;;;;;4937579;28;89846;-37
2022/07/02 10:22:04;;;;;;;0.43;0.43;;;23.10;72.60;;;;;;4939845;28;89512;-36
2022/07/02 10:24:30;;;;;;;0.20;0.10;;;23.60;75.70;;;;;;4947204;28;87683;-36
2022/07/02 10:26:59;;;;;;;0.20;0.00;;;23.80;67.20;;;;;;4945372;28;89923;-34
2022/07/02 10:29:26;;;;;;;0.35;0.20;;;23.60;61.10;;;;;;4938425;28;90031;-32
2022/07/02 10:32:34;;;;;;;0.20;0.00;;;23.20;64.50;;;;;;4941272;28;89593;-35
2022/07/02 10:35:20;;;;;;;0.20;0.00;;;23.40;67.30;;;;;;4936580;28;89892;-36
2022/07/02 10:37:46;;;;;;;0.73;0.22;;;23.60;63.50;;;;;;4937834;28;90005;-39
2022/07/02 10:40:18;;;;;;;0.20;0.00;;;23.60;62.60;;;;;;4938236;28;89899;-33
2022/07/02 10:42:48;;;;;;;0.20;0.00;;;23.70;63.60;;;;;;4937515;28;89264;-37
2022/07/02 10:45:19;;;;;;;0.20;0.00;;;23.80;63.10;;;;;;4937356;28;89624;-37
2022/07/02 10:48:04;;;;;;;0.30;0.20;;;23.60;64.10;;;;;;4937751;28;88905;-37
2022/07/02 10:50:37;;;;;;;0.20;0.10;;;23.40;63.70;;;;;;4937291;28;89854;-34
2022/07/02 10:53:24;;;;;;;0.20;0.00;;;23.70;66.70;;;;;;4937112;28;89271;-34
2022/07/02 10:55:55;;;;;;;0.20;0.13;;;23.70;66.00;;;;;;4941548;28;88898;-38
2022/07/02 10:58:34;;;;;;;0.20;0.00;;;23.50;65.50;;;;;;4937581;28;90407;-37
2022/07/02 11:01:15;;;;;;;0.20;0.00;;;23.30;67.10;;;;;;4935342;28;90440;-36
2022/07/02 11:03:57;;;;;;;0.20;0.00;;;23.40;67.30;;;;;;4939593;28;91146;-36
2022/07/02 11:06:27;;;;;;;0.20;0.17;;;23.30;68.50;;;;;;4941483;28;89394;-33
2022/07/02 11:08:59;;;;;;;0.20;0.10;;;23.50;66.20;;;;;;4940633;28;90461;-37
2022/07/02 11:11:37;;;;;;;0.60;0.52;;;23.80;65.30;;;;;;4940171;28;90075;-38
2022/07/02 11:14:18;;;;;;;0.20;0.10;;;23.90;67.70;;;;;;4940075;28;89123;-35
2022/07/02 11:16:47;;;;;;;0.20;0.10;;;23.80;65.10;;;;;;4940299;28;89265;-33
2022/07/02 11:19:17;;;;;;;0.43;0.43;;;23.90;64.60;;;;;;4939927;28;90157;-37
2022/07/02 11:21:44;;;;;;;0.20;0.03;;;24.20;63.20;;;;;;4938396;28;91934;-39
2022/07/02 11:24:10;;;;;;;0.20;0.00;;;23.90;66.10;;;;;;4940479;28;90173;-34
2022/07/02 11:26:41;;;;;;;0.30;0.30;;;24.20;66.20;;;;;;4939593;28;90421;-35
2022/07/02 11:29:07;;;;;;;0.20;0.10;;;24.00;62.20;;;;;;4939960;28;92198;-37
2022/07/02 11:31:36;;;;;;;0.20;0.00;;;23.60;63.80;;;;;;4939674;28;90121;-35
2022/07/02 11:34:03;;;;;;;0.20;0.10;;;23.30;64.70;;;;;;4939426;28;89096;-37
2022/07/02 11:36:29;;;;;;;0.20;0.10;;;23.50;68.50;;;;;;4940215;28;88267;-36
2022/07/02 11:38:55;;;;;;;0.30;0.15;;;23.70;66.60;;;;;;4939016;28;89033;-37
2022/07/02 11:41:33;;;;;;;0.20;0.00;;;23.90;63.60;;;;;;4939595;28;89701;-39
2022/07/02 11:43:59;;;;;;;;;;;23.90;66.00;;;;;;4946127;28;89548;-38
2022/07/02 11:46:28;;;;;;;0.20;0.10;;;23.80;67.70;;;;;;4942331;28;88134;-35
2022/07/02 11:48:55;;;;;;;0.20;0.00;;;23.80;65.20;;;;;;4939226;28;90333;-37
2022/07/02 11:51:21;;;;;;;0.20;0.10;;;23.40;67.30;;;;;;4938695;28;90465;-34
2022/07/02 11:53:58;;;;;;;26.30;0.98;;;23.20;69.80;;;;;;4940210;28;90617;-36
2022/07/02 11:56:23;;;;;;;0.20;0.10;;;23.10;68.50;;;;;;4939594;28;88088;-33
2022/07/02 11:58:49;;;;;;;0.20;0.05;;;23.20;71.10;;;;;;4937515;28;89926;-36
2022/07/02 12:01:34;;;;;;;0.20;0.10;;;23.60;74.40;;;;;;4939075;28;90230;-36
2022/07/02 12:04:05;;;;;;;0.20;0.00;;;23.40;69.30;;;;;;4935796;28;90197;-34
2022/07/02 12:06:42;;;;;;;0.20;0.00;;;23.30;72.80;;;;;;4939898;28;89347;-35
2022/07/02 12:09:15;;;;;;;0.30;0.30;;;23.10;73.20;;;;;;4938652;28;90298;-37
2022/07/02 12:11:44;;;;;;;0.22;0.20;;;23.10;80.30;;;;;;4939886;28;89713;-37
2022/07/02 12:14:11;;;;;;;1.33;0.55;;;23.10;79.70;;;;;;4939540;28;89553;-35
2022/07/02 12:16:39;;;;;;;0.20;0.00;;;23.40;78.40;;;;;;4938579;28;89587;-35
2022/07/02 12:19:06;;;;;;;;;;;23.30;72.70;;;;;;4939908;28;90275;-34
2022/07/02 12:21:44;;;;;;;0.32;0.15;;;23.00;72.70;;;;;;4940944;28;89673;-34
2022/07/02 12:24:27;;;;;;;0.32;0.32;;;22.90;75.80;;;;;;4939591;28;90091;-35
2022/07/02 12:27:07;;;;;;;0.20;0.00;;;22.90;79.70;;;;;;4938628;28;89252;-35
2022/07/02 12:29:54;;;;;;;0.20;0.10;;;23.30;80.20;;;;;;4938673;28;90315;-39
2022/07/02 12:32:27;;;;;;;0.20;0.00;;;23.60;75.50;;;;;;4938973;28;91172;-34
2022/07/02 12:35:01;;;;;;;0.20;0.10;;;23.60;74.50;;;;;;4938768;28;89668;-35
2022/07/02 12:37:29;;;;;;;0.20;0.08;;;23.50;72.50;;;;;;4939340;28;88006;-35
2022/07/02 12:40:01;;;;;;;0.20;0.00;;;23.30;77.50;;;;;;4938922;28;90644;-37
2022/07/02 12:42:28;;;;;;;0.20;0.00;;;23.20;78.50;;;;;;4938149;28;89052;-36
2022/07/02 12:44:58;;;;;;;0.20;0.00;;;23.30;84.20;;;;;;4938874;28;90262;-37
2022/07/02 12:47:31;;;;;;;0.20;0.10;;;23.40;78.00;;;;;;4939298;28;88533;-36
2022/07/02 12:50:10;;;;;;;0.20;0.00;;;23.50;80.70;;;;;;4937821;28;90373;-35
2022/07/02 12:53:04;;;;;;;0.30;0.20;;;23.80;74.50;;;;;;4938343;28;89670;-34
2022/07/02 12:55:34;;;;;;;0.20;0.00;;;23.70;72.10;;;;;;4938092;28;89930;-38
2022/07/02 12:58:06;;;;;;;4.72;0.25;;;23.60;71.00;;;;;;4939267;28;88213;-35